sensor_id;sensor_type;location;lat;lon;timestamp;temperature;humidity
68813;DHT22;55808;48.112;11.552;2023-02-21T00:01:39;6.10;80.10
68813;DHT22;55808;48.112;11.552;2023-02-21T00:04:24;6.00;78.40
68813;DHT22;55808;48.112;11.552;2023-02-21T00:07:08;5.90;78.30
68813;DHT22;55808;48.112;11.552;2023-02-21T00:09:52;5.90;79.90
68813;DHT22;55808;48.112;11.552;2023-02-21T00:12:36;5.80;80.30
68813;DHT22;55808;48.112;11.552;2023-02-21T00:15:20;5.90;80.30
68813;DHT22;55808;48.112;11.552;2023-02-21T00:18:05;5.80;79.50
68813;DHT22;55808;48.112;11.552;2023-02-21T00:20:49;5.80;80.80
68813;DHT22;55808;48.112;11.552;2023-02-21T00:23:34;5.80;80.90
68813;DHT22;55808;48.112;11.552;2023-02-21T00:26:18;5.70;80.60
68813;DHT22;55808;48.112;11.552;2023-02-21T00:29:02;5.70;80.90
68813;DHT22;55808;48.112;11.552;2023-02-21T00:31:46;5.70;79.50
68813;DHT22;55808;48.112;11.552;2023-02-21T00:34:30;5.60;79.80
68813;DHT22;55808;48.112;11.552;2023-02-21T00:37:15;5.50;80.00
68813;DHT22;55808;48.112;11.552;2023-02-21T00:39:59;5.50;80.90
68813;DHT22;55808;48.112;11.552;2023-02-21T00:42:43;5.50;80.50
68813;DHT22;55808;48.112;11.552;2023-02-21T00:45:27;5.50;80.80
68813;DHT22;55808;48.112;11.552;2023-02-21T00:48:12;5.40;81.30
68813;DHT22;55808;48.112;11.552;2023-02-21T00:50:56;5.40;80.30
68813;DHT22;55808;48.112;11.552;2023-02-21T00:53:40;5.40;81.50
68813;DHT22;55808;48.112;11.552;2023-02-21T00:56:25;5.40;80.90
68813;DHT22;55808;48.112;11.552;2023-02-21T00:59:09;5.40;81.00
68813;DHT22;55808;48.112;11.552;2023-02-21T01:01:53;5.30;80.70
68813;DHT22;55808;48.112;11.552;2023-02-21T01:04:37;5.30;81.00
68813;DHT22;55808;48.112;11.552;2023-02-21T01:07:21;5.30;81.40
68813;DHT22;55808;48.112;11.552;2023-02-21T01:10:06;5.30;81.40
68813;DHT22;55808;48.112;11.552;2023-02-21T01:12:50;5.30;82.30
68813;DHT22;55808;48.112;11.552;2023-02-21T01:15:34;5.20;82.40
68813;DHT22;55808;48.112;11.552;2023-02-21T01:18:18;5.30;82.50
68813;DHT22;55808;48.112;11.552;2023-02-21T01:21:03;5.20;82.90
68813;DHT22;55808;48.112;11.552;2023-02-21T01:23:47;5.20;82.90
68813;DHT22;55808;48.112;11.552;2023-02-21T01:26:31;5.20;83.70
68813;DHT22;55808;48.112;11.552;2023-02-21T01:29:15;5.20;83.50
68813;DHT22;55808;48.112;11.552;2023-02-21T01:32:00;5.20;83.50
68813;DHT22;55808;48.112;11.552;2023-02-21T01:34:44;5.10;83.60
68813;DHT22;55808;48.112;11.552;2023-02-21T01:37:28;5.10;83.20
68813;DHT22;55808;48.112;11.552;2023-02-21T01:40:13;5.10;84.10
68813;DHT22;55808;48.112;11.552;2023-02-21T01:42:57;5.10;84.60
68813;DHT22;55808;48.112;11.552;2023-02-21T01:45:42;5.00;82.80
68813;DHT22;55808;48.112;11.552;2023-02-21T01:48:28;4.90;83.40
68813;DHT22;55808;48.112;11.552;2023-02-21T01:51:13;4.80;83.70
68813;DHT22;55808;48.112;11.552;2023-02-21T01:53:58;4.80;84.30
68813;DHT22;55808;48.112;11.552;2023-02-21T01:56:43;4.90;84.50
68813;DHT22;55808;48.112;11.552;2023-02-21T01:59:27;4.80;84.50
68813;DHT22;55808;48.112;11.552;2023-02-21T02:05:22;4.90;85.00
68813;DHT22;55808;48.112;11.552;2023-02-21T02:08:07;4.90;84.70
68813;DHT22;55808;48.112;11.552;2023-02-21T02:10:57;4.90;84.40
68813;DHT22;55808;48.112;11.552;2023-02-21T02:13:53;4.80;84.50
68813;DHT22;55808;48.112;11.552;2023-02-21T02:19:32;4.60;85.00
68813;DHT22;55808;48.112;11.552;2023-02-21T02:22:25;4.60;85.50
68813;DHT22;55808;48.112;11.552;2023-02-21T02:35:34;4.60;86.10
68813;DHT22;55808;48.112;11.552;2023-02-21T02:43:08;4.70;85.50
68813;DHT22;55808;48.112;11.552;2023-02-21T02:45:39;4.70;85.70
68813;DHT22;55808;48.112;11.552;2023-02-21T02:48:14;4.60;86.40
68813;DHT22;55808;48.112;11.552;2023-02-21T02:50:41;4.60;86.30
68813;DHT22;55808;48.112;11.552;2023-02-21T02:53:08;4.60;86.60
68813;DHT22;55808;48.112;11.552;2023-02-21T02:55:45;4.60;85.80
68813;DHT22;55808;48.112;11.552;2023-02-21T02:58:12;4.50;86.30
68813;DHT22;55808;48.112;11.552;2023-02-21T03:00:39;4.60;86.10
68813;DHT22;55808;48.112;11.552;2023-02-21T03:05:35;4.50;86.40
68813;DHT22;55808;48.112;11.552;2023-02-21T03:08:04;4.50;86.50
68813;DHT22;55808;48.112;11.552;2023-02-21T03:10:36;4.50;85.90
68813;DHT22;55808;48.112;11.552;2023-02-21T03:13:11;4.50;86.00
68813;DHT22;55808;48.112;11.552;2023-02-21T03:15:42;4.50;86.70
68813;DHT22;55808;48.112;11.552;2023-02-21T03:18:20;4.50;86.30
68813;DHT22;55808;48.112;11.552;2023-02-21T03:20:58;4.50;86.50
68813;DHT22;55808;48.112;11.552;2023-02-21T03:23:27;4.60;87.20
68813;DHT22;55808;48.112;11.552;2023-02-21T03:25:59;4.50;86.90
68813;DHT22;55808;48.112;11.552;2023-02-21T03:28:25;4.40;86.70
68813;DHT22;55808;48.112;11.552;2023-02-21T03:30:52;4.40;86.30
68813;DHT22;55808;48.112;11.552;2023-02-21T03:33:19;4.40;87.30
68813;DHT22;55808;48.112;11.552;2023-02-21T03:35:44;4.40;87.00
68813;DHT22;55808;48.112;11.552;2023-02-21T03:38:10;4.30;86.90
68813;DHT22;55808;48.112;11.552;2023-02-21T03:40:36;4.30;87.10
68813;DHT22;55808;48.112;11.552;2023-02-21T03:43:02;4.20;87.30
68813;DHT22;55808;48.112;11.552;2023-02-21T03:45:31;4.20;87.90
68813;DHT22;55808;48.112;11.552;2023-02-21T03:47:57;4.20;87.90
68813;DHT22;55808;48.112;11.552;2023-02-21T03:50:22;4.10;88.40
68813;DHT22;55808;48.112;11.552;2023-02-21T03:52:48;4.20;88.30
68813;DHT22;55808;48.112;11.552;2023-02-21T03:55:14;4.10;87.70
68813;DHT22;55808;48.112;11.552;2023-02-21T03:57:39;4.10;88.40
68813;DHT22;55808;48.112;11.552;2023-02-21T04:00:05;4.10;88.40
68813;DHT22;55808;48.112;11.552;2023-02-21T04:02:30;4.10;88.40
68813;DHT22;55808;48.112;11.552;2023-02-21T04:04:56;4.00;88.00
68813;DHT22;55808;48.112;11.552;2023-02-21T04:07:21;4.00;88.20
68813;DHT22;55808;48.112;11.552;2023-02-21T04:09:47;4.00;88.90
68813;DHT22;55808;48.112;11.552;2023-02-21T04:12:13;4.00;88.40
68813;DHT22;55808;48.112;11.552;2023-02-21T04:14:38;4.00;88.90
68813;DHT22;55808;48.112;11.552;2023-02-21T04:17:04;3.90;88.20
68813;DHT22;55808;48.112;11.552;2023-02-21T04:19:30;3.80;88.80
68813;DHT22;55808;48.112;11.552;2023-02-21T04:21:55;3.80;89.20
68813;DHT22;55808;48.112;11.552;2023-02-21T04:24:21;3.80;89.30
68813;DHT22;55808;48.112;11.552;2023-02-21T04:26:46;3.80;89.20
68813;DHT22;55808;48.112;11.552;2023-02-21T04:29:12;3.80;89.10
68813;DHT22;55808;48.112;11.552;2023-02-21T04:31:37;3.70;89.30
68813;DHT22;55808;48.112;11.552;2023-02-21T04:34:03;3.70;89.30
68813;DHT22;55808;48.112;11.552;2023-02-21T04:36:29;3.60;89.20
68813;DHT22;55808;48.112;11.552;2023-02-21T04:38:54;3.70;89.70
68813;DHT22;55808;48.112;11.552;2023-02-21T04:41:20;3.70;89.40
68813;DHT22;55808;48.112;11.552;2023-02-21T04:43:46;3.70;90.00
68813;DHT22;55808;48.112;11.552;2023-02-21T04:46:12;3.80;90.20
68813;DHT22;55808;48.112;11.552;2023-02-21T04:48:41;3.70;89.70
68813;DHT22;55808;48.112;11.552;2023-02-21T04:51:06;3.60;90.10
68813;DHT22;55808;48.112;11.552;2023-02-21T04:53:32;3.70;90.20
68813;DHT22;55808;48.112;11.552;2023-02-21T04:55:57;3.70;90.20
68813;DHT22;55808;48.112;11.552;2023-02-21T04:58:23;3.60;90.30
68813;DHT22;55808;48.112;11.552;2023-02-21T05:00:48;3.60;90.20
68813;DHT22;55808;48.112;11.552;2023-02-21T05:03:14;3.60;90.20
68813;DHT22;55808;48.112;11.552;2023-02-21T05:05:39;3.60;90.20
68813;DHT22;55808;48.112;11.552;2023-02-21T05:08:05;3.50;90.10
68813;DHT22;55808;48.112;11.552;2023-02-21T05:10:32;3.50;90.00
68813;DHT22;55808;48.112;11.552;2023-02-21T05:12:58;3.60;90.10
68813;DHT22;55808;48.112;11.552;2023-02-21T05:15:23;3.50;90.10
68813;DHT22;55808;48.112;11.552;2023-02-21T05:17:49;3.60;90.20
68813;DHT22;55808;48.112;11.552;2023-02-21T05:20:14;3.60;90.10
68813;DHT22;55808;48.112;11.552;2023-02-21T05:22:40;3.70;90.10
68813;DHT22;55808;48.112;11.552;2023-02-21T05:25:06;3.70;90.00
68813;DHT22;55808;48.112;11.552;2023-02-21T05:27:32;3.60;89.70
68813;DHT22;55808;48.112;11.552;2023-02-21T05:29:58;3.70;90.00
68813;DHT22;55808;48.112;11.552;2023-02-21T05:32:24;3.70;89.30
68813;DHT22;55808;48.112;11.552;2023-02-21T05:34:54;3.70;89.00
68813;DHT22;55808;48.112;11.552;2023-02-21T05:37:20;3.70;88.70
68813;DHT22;55808;48.112;11.552;2023-02-21T05:39:46;3.70;88.70
68813;DHT22;55808;48.112;11.552;2023-02-21T05:42:12;3.70;88.40
68813;DHT22;55808;48.112;11.552;2023-02-21T05:44:37;3.70;88.40
68813;DHT22;55808;48.112;11.552;2023-02-21T05:47:03;3.80;88.40
68813;DHT22;55808;48.112;11.552;2023-02-21T05:49:29;3.90;88.60
68813;DHT22;55808;48.112;11.552;2023-02-21T05:51:54;3.90;87.90
68813;DHT22;55808;48.112;11.552;2023-02-21T05:54:20;3.80;87.60
68813;DHT22;55808;48.112;11.552;2023-02-21T05:56:46;3.80;87.60
68813;DHT22;55808;48.112;11.552;2023-02-21T05:59:13;3.80;88.20
68813;DHT22;55808;48.112;11.552;2023-02-21T06:01:38;3.80;87.90
68813;DHT22;55808;48.112;11.552;2023-02-21T06:04:04;3.80;87.80
68813;DHT22;55808;48.112;11.552;2023-02-21T06:06:32;3.80;87.80
68813;DHT22;55808;48.112;11.552;2023-02-21T06:08:58;3.80;87.90
68813;DHT22;55808;48.112;11.552;2023-02-21T06:11:27;3.80;87.80
68813;DHT22;55808;48.112;11.552;2023-02-21T06:13:55;3.70;87.00
68813;DHT22;55808;48.112;11.552;2023-02-21T06:16:21;3.80;87.10
68813;DHT22;55808;48.112;11.552;2023-02-21T06:18:50;3.80;86.70
68813;DHT22;55808;48.112;11.552;2023-02-21T06:21:16;3.80;86.80
68813;DHT22;55808;48.112;11.552;2023-02-21T06:23:42;3.80;86.50
68813;DHT22;55808;48.112;11.552;2023-02-21T06:26:07;3.80;86.20
68813;DHT22;55808;48.112;11.552;2023-02-21T06:28:33;3.80;86.40
68813;DHT22;55808;48.112;11.552;2023-02-21T06:30:58;3.80;86.30
68813;DHT22;55808;48.112;11.552;2023-02-21T06:33:24;3.90;86.50
68813;DHT22;55808;48.112;11.552;2023-02-21T06:35:49;3.90;86.80
68813;DHT22;55808;48.112;11.552;2023-02-21T06:38:15;3.90;86.20
68813;DHT22;55808;48.112;11.552;2023-02-21T06:40:40;4.00;85.90
68813;DHT22;55808;48.112;11.552;2023-02-21T06:43:06;4.00;85.70
68813;DHT22;55808;48.112;11.552;2023-02-21T06:45:31;4.10;86.10
68813;DHT22;55808;48.112;11.552;2023-02-21T06:47:57;4.10;85.80
68813;DHT22;55808;48.112;11.552;2023-02-21T06:50:22;4.20;85.30
68813;DHT22;55808;48.112;11.552;2023-02-21T06:52:48;4.30;84.40
68813;DHT22;55808;48.112;11.552;2023-02-21T06:55:18;4.30;84.10
68813;DHT22;55808;48.112;11.552;2023-02-21T06:57:43;4.30;84.60
68813;DHT22;55808;48.112;11.552;2023-02-21T07:00:09;4.40;84.30
68813;DHT22;55808;48.112;11.552;2023-02-21T07:02:35;4.40;85.00
68813;DHT22;55808;48.112;11.552;2023-02-21T07:05:00;4.30;86.20
68813;DHT22;55808;48.112;11.552;2023-02-21T07:07:26;4.30;86.40
68813;DHT22;55808;48.112;11.552;2023-02-21T07:09:51;4.40;86.00
68813;DHT22;55808;48.112;11.552;2023-02-21T07:12:17;4.50;84.70
68813;DHT22;55808;48.112;11.552;2023-02-21T07:14:42;4.60;83.70
68813;DHT22;55808;48.112;11.552;2023-02-21T07:17:08;4.60;84.20
68813;DHT22;55808;48.112;11.552;2023-02-21T07:19:33;4.80;83.70
68813;DHT22;55808;48.112;11.552;2023-02-21T07:21:59;4.80;83.10
68813;DHT22;55808;48.112;11.552;2023-02-21T07:24:24;5.00;82.40
68813;DHT22;55808;48.112;11.552;2023-02-21T07:26:50;5.00;81.90
68813;DHT22;55808;48.112;11.552;2023-02-21T07:29:15;5.10;82.10
68813;DHT22;55808;48.112;11.552;2023-02-21T07:31:41;5.20;81.40
68813;DHT22;55808;48.112;11.552;2023-02-21T07:34:07;5.30;81.40
68813;DHT22;55808;48.112;11.552;2023-02-21T07:36:32;5.30;81.80
68813;DHT22;55808;48.112;11.552;2023-02-21T07:38:58;5.30;82.50
68813;DHT22;55808;48.112;11.552;2023-02-21T07:41:23;5.40;82.30
68813;DHT22;55808;48.112;11.552;2023-02-21T07:43:49;5.50;81.30
68813;DHT22;55808;48.112;11.552;2023-02-21T07:46:15;5.60;81.30
68813;DHT22;55808;48.112;11.552;2023-02-21T07:48:41;5.50;84.30
68813;DHT22;55808;48.112;11.552;2023-02-21T07:51:07;5.50;82.80
68813;DHT22;55808;48.112;11.552;2023-02-21T07:53:33;5.70;81.60
68813;DHT22;55808;48.112;11.552;2023-02-21T07:55:58;5.80;81.60
68813;DHT22;55808;48.112;11.552;2023-02-21T07:58:24;5.80;81.50
68813;DHT22;55808;48.112;11.552;2023-02-21T08:00:50;5.90;80.30
68813;DHT22;55808;48.112;11.552;2023-02-21T08:03:16;6.10;79.00
68813;DHT22;55808;48.112;11.552;2023-02-21T08:05:42;6.40;79.70
68813;DHT22;55808;48.112;11.552;2023-02-21T08:08:08;6.70;77.70
68813;DHT22;55808;48.112;11.552;2023-02-21T08:10:34;6.80;77.60
68813;DHT22;55808;48.112;11.552;2023-02-21T08:12:59;7.00;76.80
68813;DHT22;55808;48.112;11.552;2023-02-21T08:15:25;7.10;75.50
68813;DHT22;55808;48.112;11.552;2023-02-21T08:17:50;7.20;74.90
68813;DHT22;55808;48.112;11.552;2023-02-21T08:20:16;7.20;74.80
68813;DHT22;55808;48.112;11.552;2023-02-21T08:22:42;7.20;75.60
68813;DHT22;55808;48.112;11.552;2023-02-21T08:25:11;7.30;74.60
68813;DHT22;55808;48.112;11.552;2023-02-21T08:27:37;7.40;74.40
68813;DHT22;55808;48.112;11.552;2023-02-21T08:30:05;7.40;74.40
68813;DHT22;55808;48.112;11.552;2023-02-21T08:32:31;7.60;73.60
68813;DHT22;55808;48.112;11.552;2023-02-21T08:34:58;7.60;73.40
68813;DHT22;55808;48.112;11.552;2023-02-21T08:37:23;7.70;73.30
68813;DHT22;55808;48.112;11.552;2023-02-21T08:39:49;7.90;72.00
68813;DHT22;55808;48.112;11.552;2023-02-21T08:42:16;8.10;71.70
68813;DHT22;55808;48.112;11.552;2023-02-21T08:44:43;8.30;70.20
68813;DHT22;55808;48.112;11.552;2023-02-21T08:47:09;8.20;71.80
68813;DHT22;55808;48.112;11.552;2023-02-21T08:49:34;8.20;72.20
68813;DHT22;55808;48.112;11.552;2023-02-21T08:52:04;8.30;70.80
68813;DHT22;55808;48.112;11.552;2023-02-21T08:54:30;8.40;71.20
68813;DHT22;55808;48.112;11.552;2023-02-21T08:56:56;8.50;70.70
68813;DHT22;55808;48.112;11.552;2023-02-21T08:59:23;8.50;70.60
68813;DHT22;55808;48.112;11.552;2023-02-21T09:01:49;8.70;70.70
68813;DHT22;55808;48.112;11.552;2023-02-21T09:04:14;9.00;69.20
68813;DHT22;55808;48.112;11.552;2023-02-21T09:06:40;9.10;69.40
68813;DHT22;55808;48.112;11.552;2023-02-21T09:09:05;9.00;68.90
68813;DHT22;55808;48.112;11.552;2023-02-21T09:11:31;8.90;69.30
68813;DHT22;55808;48.112;11.552;2023-02-21T09:13:56;8.90;70.10
68813;DHT22;55808;48.112;11.552;2023-02-21T09:16:22;9.10;69.50
68813;DHT22;55808;48.112;11.552;2023-02-21T09:18:55;9.10;69.70
68813;DHT22;55808;48.112;11.552;2023-02-21T09:21:21;9.20;68.90
68813;DHT22;55808;48.112;11.552;2023-02-21T09:23:47;9.30;68.20
68813;DHT22;55808;48.112;11.552;2023-02-21T09:26:15;9.60;67.10
68813;DHT22;55808;48.112;11.552;2023-02-21T09:28:41;9.60;66.90
68813;DHT22;55808;48.112;11.552;2023-02-21T09:31:08;9.60;66.80
68813;DHT22;55808;48.112;11.552;2023-02-21T09:33:35;9.50;67.60
68813;DHT22;55808;48.112;11.552;2023-02-21T09:36:07;9.40;67.60
68813;DHT22;55808;48.112;11.552;2023-02-21T09:38:33;9.60;66.50
68813;DHT22;55808;48.112;11.552;2023-02-21T09:40:59;9.70;66.20
68813;DHT22;55808;48.112;11.552;2023-02-21T09:45:55;9.60;66.50
68813;DHT22;55808;48.112;11.552;2023-02-21T09:48:23;9.40;66.80
68813;DHT22;55808;48.112;11.552;2023-02-21T09:50:53;9.70;66.10
68813;DHT22;55808;48.112;11.552;2023-02-21T09:53:23;9.70;65.80
68813;DHT22;55808;48.112;11.552;2023-02-21T09:55:50;9.70;65.20
68813;DHT22;55808;48.112;11.552;2023-02-21T09:58:19;9.90;64.00
68813;DHT22;55808;48.112;11.552;2023-02-21T10:00:45;10.10;63.00
68813;DHT22;55808;48.112;11.552;2023-02-21T10:05:46;10.00;62.60
68813;DHT22;55808;48.112;11.552;2023-02-21T10:08:25;10.20;62.50
68813;DHT22;55808;48.112;11.552;2023-02-21T10:11:00;10.40;62.00
68813;DHT22;55808;48.112;11.552;2023-02-21T10:16:12;10.50;61.80
68813;DHT22;55808;48.112;11.552;2023-02-21T10:21:33;10.70;60.70
68813;DHT22;55808;48.112;11.552;2023-02-21T10:24:01;10.80;61.20
68813;DHT22;55808;48.112;11.552;2023-02-21T10:26:30;10.80;60.10
68813;DHT22;55808;48.112;11.552;2023-02-21T10:28:57;10.80;60.60
68813;DHT22;55808;48.112;11.552;2023-02-21T10:31:26;10.80;61.00
68813;DHT22;55808;48.112;11.552;2023-02-21T10:33:54;11.00;60.60
68813;DHT22;55808;48.112;11.552;2023-02-21T10:36:21;10.90;60.90
68813;DHT22;55808;48.112;11.552;2023-02-21T10:41:27;11.00;60.90
68813;DHT22;55808;48.112;11.552;2023-02-21T10:43:58;11.00;61.90
68813;DHT22;55808;48.112;11.552;2023-02-21T10:46:32;11.10;60.90
68813;DHT22;55808;48.112;11.552;2023-02-21T10:49:17;11.30;58.90
68813;DHT22;55808;48.112;11.552;2023-02-21T10:51:46;11.40;59.90
68813;DHT22;55808;48.112;11.552;2023-02-21T10:54:16;11.30;60.70
68813;DHT22;55808;48.112;11.552;2023-02-21T10:56:44;11.30;61.00
68813;DHT22;55808;48.112;11.552;2023-02-21T10:59:10;11.30;61.20
68813;DHT22;55808;48.112;11.552;2023-02-21T11:01:47;11.40;59.50
68813;DHT22;55808;48.112;11.552;2023-02-21T11:06:49;11.80;58.30
68813;DHT22;55808;48.112;11.552;2023-02-21T11:09:32;11.80;58.50
68813;DHT22;55808;48.112;11.552;2023-02-21T11:12:02;11.70;58.90
68813;DHT22;55808;48.112;11.552;2023-02-21T11:14:29;11.90;58.00
68813;DHT22;55808;48.112;11.552;2023-02-21T11:22:10;15.90;51.20
68813;DHT22;55808;48.112;11.552;2023-02-21T11:24:57;17.40;45.00
68813;DHT22;55808;48.112;11.552;2023-02-21T11:27:24;17.80;43.70
68813;DHT22;55808;48.112;11.552;2023-02-21T11:29:50;18.90;43.70
68813;DHT22;55808;48.112;11.552;2023-02-21T11:32:24;19.90;42.20
68813;DHT22;55808;48.112;11.552;2023-02-21T11:34:50;19.50;41.60
68813;DHT22;55808;48.112;11.552;2023-02-21T11:37:16;19.60;42.20
68813;DHT22;55808;48.112;11.552;2023-02-21T11:39:47;19.50;41.20
68813;DHT22;55808;48.112;11.552;2023-02-21T11:42:31;19.50;41.20
68813;DHT22;55808;48.112;11.552;2023-02-21T11:45:14;18.30;42.10
68813;DHT22;55808;48.112;11.552;2023-02-21T11:47:51;18.90;42.80
68813;DHT22;55808;48.112;11.552;2023-02-21T11:50:28;18.90;41.80
68813;DHT22;55808;48.112;11.552;2023-02-21T11:53:08;19.30;41.70
68813;DHT22;55808;48.112;11.552;2023-02-21T11:55:36;20.30;42.00
68813;DHT22;55808;48.112;11.552;2023-02-21T11:58:23;21.20;42.30
68813;DHT22;55808;48.112;11.552;2023-02-21T12:00:55;22.40;41.60
68813;DHT22;55808;48.112;11.552;2023-02-21T12:03:49;21.90;38.80
68813;DHT22;55808;48.112;11.552;2023-02-21T12:11:43;21.80;42.90
68813;DHT22;55808;48.112;11.552;2023-02-21T12:14:15;22.20;40.90
68813;DHT22;55808;48.112;11.552;2023-02-21T12:27:40;22.30;38.70
68813;DHT22;55808;48.112;11.552;2023-02-21T12:35:28;21.80;39.80
68813;DHT22;55808;48.112;11.552;2023-02-21T12:37:58;22.30;39.80
68813;DHT22;55808;48.112;11.552;2023-02-21T12:48:33;23.20;42.20
68813;DHT22;55808;48.112;11.552;2023-02-21T12:51:01;22.50;38.20
68813;DHT22;55808;48.112;11.552;2023-02-21T12:53:40;22.80;39.20
68813;DHT22;55808;48.112;11.552;2023-02-21T12:56:15;21.90;37.80
68813;DHT22;55808;48.112;11.552;2023-02-21T13:01:10;23.40;38.90
68813;DHT22;55808;48.112;11.552;2023-02-21T13:06:17;23.00;40.10
68813;DHT22;55808;48.112;11.552;2023-02-21T13:09:05;22.90;38.60
68813;DHT22;55808;48.112;11.552;2023-02-21T13:11:54;22.60;41.50
68813;DHT22;55808;48.112;11.552;2023-02-21T13:14:32;22.70;39.40
68813;DHT22;55808;48.112;11.552;2023-02-21T13:16:58;23.20;42.70
68813;DHT22;55808;48.112;11.552;2023-02-21T13:19:24;24.20;40.00
68813;DHT22;55808;48.112;11.552;2023-02-21T13:25:20;24.50;37.90
68813;DHT22;55808;48.112;11.552;2023-02-21T13:30:19;23.20;37.30
68813;DHT22;55808;48.112;11.552;2023-02-21T13:32:49;23.10;39.10
68813;DHT22;55808;48.112;11.552;2023-02-21T13:35:18;23.30;39.20
68813;DHT22;55808;48.112;11.552;2023-02-21T13:37:45;22.70;37.50
68813;DHT22;55808;48.112;11.552;2023-02-21T13:40:24;22.50;39.10
68813;DHT22;55808;48.112;11.552;2023-02-21T13:45:34;22.80;39.30
68813;DHT22;55808;48.112;11.552;2023-02-21T13:48:09;22.90;38.90
68813;DHT22;55808;48.112;11.552;2023-02-21T13:53:20;21.10;41.70
68813;DHT22;55808;48.112;11.552;2023-02-21T13:58:31;20.90;42.00
68813;DHT22;55808;48.112;11.552;2023-02-21T14:01:11;20.20;41.90
68813;DHT22;55808;48.112;11.552;2023-02-21T14:03:38;20.10;43.30
68813;DHT22;55808;48.112;11.552;2023-02-21T14:08:44;20.60;44.00
68813;DHT22;55808;48.112;11.552;2023-02-21T14:11:45;20.40;42.60
68813;DHT22;55808;48.112;11.552;2023-02-21T14:14:23;20.90;45.10
68813;DHT22;55808;48.112;11.552;2023-02-21T14:16:57;21.40;44.20
68813;DHT22;55808;48.112;11.552;2023-02-21T14:19:25;21.70;41.60
68813;DHT22;55808;48.112;11.552;2023-02-21T14:21:55;21.60;42.20
68813;DHT22;55808;48.112;11.552;2023-02-21T14:24:22;21.60;43.60
68813;DHT22;55808;48.112;11.552;2023-02-21T14:26:49;21.20;41.30
68813;DHT22;55808;48.112;11.552;2023-02-21T14:29:32;20.10;42.70
68813;DHT22;55808;48.112;11.552;2023-02-21T14:34:31;19.70;46.50
68813;DHT22;55808;48.112;11.552;2023-02-21T14:36:58;19.30;46.20
68813;DHT22;55808;48.112;11.552;2023-02-21T14:39:29;19.10;46.00
68813;DHT22;55808;48.112;11.552;2023-02-21T14:44:24;18.20;46.20
68813;DHT22;55808;48.112;11.552;2023-02-21T14:47:18;18.00;46.20
68813;DHT22;55808;48.112;11.552;2023-02-21T14:52:45;17.80;47.40
68813;DHT22;55808;48.112;11.552;2023-02-21T14:55:24;17.80;47.70
68813;DHT22;55808;48.112;11.552;2023-02-21T15:08:20;17.60;49.30
68813;DHT22;55808;48.112;11.552;2023-02-21T15:10:48;17.50;47.50
68813;DHT22;55808;48.112;11.552;2023-02-21T15:15:45;17.20;48.70
68813;DHT22;55808;48.112;11.552;2023-02-21T15:18:14;17.00;49.90
68813;DHT22;55808;48.112;11.552;2023-02-21T15:20:47;17.00;49.60
68813;DHT22;55808;48.112;11.552;2023-02-21T15:23:25;16.90;48.70
68813;DHT22;55808;48.112;11.552;2023-02-21T15:25:55;16.90;50.10
68813;DHT22;55808;48.112;11.552;2023-02-21T15:28:22;17.20;50.90
68813;DHT22;55808;48.112;11.552;2023-02-21T15:30:58;17.50;48.50
68813;DHT22;55808;48.112;11.552;2023-02-21T15:33:24;17.60;49.10
68813;DHT22;55808;48.112;11.552;2023-02-21T15:41:21;17.30;48.50
68813;DHT22;55808;48.112;11.552;2023-02-21T15:43:49;17.20;50.20
68813;DHT22;55808;48.112;11.552;2023-02-21T15:46:26;17.00;49.70
68813;DHT22;55808;48.112;11.552;2023-02-21T15:48:53;16.90;49.40
68813;DHT22;55808;48.112;11.552;2023-02-21T15:51:20;16.80;49.70
68813;DHT22;55808;48.112;11.552;2023-02-21T15:56:31;16.60;50.50
68813;DHT22;55808;48.112;11.552;2023-02-21T16:01:41;16.30;51.10
68813;DHT22;55808;48.112;11.552;2023-02-21T16:04:21;16.00;52.00
68813;DHT22;55808;48.112;11.552;2023-02-21T16:06:49;15.90;52.70
68813;DHT22;55808;48.112;11.552;2023-02-21T16:09:22;15.50;51.60
68813;DHT22;55808;48.112;11.552;2023-02-21T16:12:04;15.30;52.60
68813;DHT22;55808;48.112;11.552;2023-02-21T16:19:34;14.70;54.80
68813;DHT22;55808;48.112;11.552;2023-02-21T16:24:45;14.40;54.50
68813;DHT22;55808;48.112;11.552;2023-02-21T16:27:14;14.20;55.80
68813;DHT22;55808;48.112;11.552;2023-02-21T16:29:43;14.00;59.10
68813;DHT22;55808;48.112;11.552;2023-02-21T16:32:18;13.90;56.40
68813;DHT22;55808;48.112;11.552;2023-02-21T16:34:45;13.80;58.00
68813;DHT22;55808;48.112;11.552;2023-02-21T16:37:12;13.80;57.10
68813;DHT22;55808;48.112;11.552;2023-02-21T16:39:38;13.70;55.90
68813;DHT22;55808;48.112;11.552;2023-02-21T16:42:05;13.60;57.80
68813;DHT22;55808;48.112;11.552;2023-02-21T16:44:30;13.60;56.70
68813;DHT22;55808;48.112;11.552;2023-02-21T16:46:56;13.50;56.50
68813;DHT22;55808;48.112;11.552;2023-02-21T16:49:22;13.40;59.60
68813;DHT22;55808;48.112;11.552;2023-02-21T16:51:48;13.30;58.20
68813;DHT22;55808;48.112;11.552;2023-02-21T16:54:14;13.20;57.40
68813;DHT22;55808;48.112;11.552;2023-02-21T16:56:43;13.00;59.10
68813;DHT22;55808;48.112;11.552;2023-02-21T16:59:10;12.80;61.40
68813;DHT22;55808;48.112;11.552;2023-02-21T17:01:36;12.70;58.00
68813;DHT22;55808;48.112;11.552;2023-02-21T17:04:02;12.70;58.20
68813;DHT22;55808;48.112;11.552;2023-02-21T17:06:31;12.70;60.50
68813;DHT22;55808;48.112;11.552;2023-02-21T17:08:57;12.50;61.00
68813;DHT22;55808;48.112;11.552;2023-02-21T17:11:23;12.50;59.50
68813;DHT22;55808;48.112;11.552;2023-02-21T17:13:51;12.50;59.70
68813;DHT22;55808;48.112;11.552;2023-02-21T17:16:17;12.40;59.80
68813;DHT22;55808;48.112;11.552;2023-02-21T17:18:43;12.40;60.30
68813;DHT22;55808;48.112;11.552;2023-02-21T17:21:09;12.30;62.30
68813;DHT22;55808;48.112;11.552;2023-02-21T17:23:35;12.30;62.80
68813;DHT22;55808;48.112;11.552;2023-02-21T17:26:00;12.30;61.10
68813;DHT22;55808;48.112;11.552;2023-02-21T17:28:26;12.30;60.50
68813;DHT22;55808;48.112;11.552;2023-02-21T17:30:51;12.30;60.80
68813;DHT22;55808;48.112;11.552;2023-02-21T17:33:17;12.30;61.10
68813;DHT22;55808;48.112;11.552;2023-02-21T17:35:45;12.20;61.40
68813;DHT22;55808;48.112;11.552;2023-02-21T17:38:10;12.10;62.20
68813;DHT22;55808;48.112;11.552;2023-02-21T17:40:36;11.90;63.80
68813;DHT22;55808;48.112;11.552;2023-02-21T17:43:01;11.90;64.10
68813;DHT22;55808;48.112;11.552;2023-02-21T17:45:33;11.90;64.30
68813;DHT22;55808;48.112;11.552;2023-02-21T17:48:00;12.00;62.70
68813;DHT22;55808;48.112;11.552;2023-02-21T17:50:27;11.90;65.50
68813;DHT22;55808;48.112;11.552;2023-02-21T17:52:52;11.80;63.60
68813;DHT22;55808;48.112;11.552;2023-02-21T17:55:19;11.70;64.20
68813;DHT22;55808;48.112;11.552;2023-02-21T17:57:45;11.60;66.10
68813;DHT22;55808;48.112;11.552;2023-02-21T18:00:15;11.50;65.10
68813;DHT22;55808;48.112;11.552;2023-02-21T18:02:41;11.40;65.60